North Center, New Jersey
Current Conditions -  °F | °C
As of 1:53 PM on Thursday 23 Oct 2014 (Local Time) from KCDW Reporting Station
Light Rain Light Rain  
Wind Chill: 52°   Ceiling: 4600
Heat Index: 52°   Visibility: 10mi
Dew Point: 48°   Wind: 6mph
Humidity: 86%   Direction: 20°NNE
Pressure: 29.73"   Gusts: NA
Location:  40.8099°N, 74.187°W
Report Text: KCDW 231753Z 02005KT 10SM -RA FEW009 SCT020 OVC046 11/09 A2973 RMK AO2 SLP071 P0001 60021 T01110089 10117 20100 57007
Loading
Personal Weather Stations






























Interactive Weather Map
Tropical Storm Tracking
New forecast layout! Learn more

10-Day Weather Forecast

Advertisements
Track Severe Weather on mobile